sensor_id;sensor_type;location;lat;lon;timestamp;temperature;humidity
9984;DHT22;16737;50.932;6.780;2023-03-05T00:00:41;8.40;90.80
9984;DHT22;16737;50.932;6.780;2023-03-05T00:03:08;8.30;90.70
9984;DHT22;16737;50.932;6.780;2023-03-05T00:05:35;8.30;90.70
9984;DHT22;16737;50.932;6.780;2023-03-05T00:08:03;8.30;90.70
9984;DHT22;16737;50.932;6.780;2023-03-05T00:10:30;8.30;90.70
9984;DHT22;16737;50.932;6.780;2023-03-05T00:12:57;8.30;90.70
9984;DHT22;16737;50.932;6.780;2023-03-05T00:15:24;8.30;90.80
9984;DHT22;16737;50.932;6.780;2023-03-05T00:17:51;8.30;90.80
9984;DHT22;16737;50.932;6.780;2023-03-05T00:20:19;8.30;90.80
9984;DHT22;16737;50.932;6.780;2023-03-05T00:22:46;8.20;90.70
9984;DHT22;16737;50.932;6.780;2023-03-05T00:25:14;8.20;90.70
9984;DHT22;16737;50.932;6.780;2023-03-05T00:27:41;8.20;90.80
9984;DHT22;16737;50.932;6.780;2023-03-05T00:30:10;8.20;90.80
9984;DHT22;16737;50.932;6.780;2023-03-05T00:32:38;8.20;90.80
9984;DHT22;16737;50.932;6.780;2023-03-05T00:35:05;8.20;90.80
9984;DHT22;16737;50.932;6.780;2023-03-05T00:37:33;8.20;90.80
9984;DHT22;16737;50.932;6.780;2023-03-05T00:40:00;8.20;90.80
9984;DHT22;16737;50.932;6.780;2023-03-05T00:42:28;8.10;90.80
9984;DHT22;16737;50.932;6.780;2023-03-05T00:44:55;8.10;90.80
9984;DHT22;16737;50.932;6.780;2023-03-05T00:47:22;8.10;90.80
9984;DHT22;16737;50.932;6.780;2023-03-05T00:49:49;8.10;90.80
9984;DHT22;16737;50.932;6.780;2023-03-05T00:52:16;8.10;90.80
9984;DHT22;16737;50.932;6.780;2023-03-05T00:54:43;8.10;90.80
9984;DHT22;16737;50.932;6.780;2023-03-05T00:57:10;8.10;90.80
9984;DHT22;16737;50.932;6.780;2023-03-05T00:59:38;8.10;90.80
9984;DHT22;16737;50.932;6.780;2023-03-05T01:02:05;8.10;90.80
9984;DHT22;16737;50.932;6.780;2023-03-05T01:04:32;8.10;90.80
9984;DHT22;16737;50.932;6.780;2023-03-05T01:07:00;8.00;90.80
9984;DHT22;16737;50.932;6.780;2023-03-05T01:09:27;8.00;90.80
9984;DHT22;16737;50.932;6.780;2023-03-05T01:11:55;8.00;91.20
9984;DHT22;16737;50.932;6.780;2023-03-05T01:14:22;8.00;90.90
9984;DHT22;16737;50.932;6.780;2023-03-05T01:16:53;8.00;90.90
9984;DHT22;16737;50.932;6.780;2023-03-05T01:19:20;8.00;90.90
9984;DHT22;16737;50.932;6.780;2023-03-05T01:21:47;8.00;90.90
9984;DHT22;16737;50.932;6.780;2023-03-05T01:24:14;8.00;90.90
9984;DHT22;16737;50.932;6.780;2023-03-05T01:26:41;8.00;90.90
9984;DHT22;16737;50.932;6.780;2023-03-05T01:29:08;8.00;90.90
9984;DHT22;16737;50.932;6.780;2023-03-05T01:31:35;8.00;90.90
9984;DHT22;16737;50.932;6.780;2023-03-05T01:34:03;8.00;90.90
9984;DHT22;16737;50.932;6.780;2023-03-05T01:36:30;8.00;90.90
9984;DHT22;16737;50.932;6.780;2023-03-05T01:38:57;8.00;90.90
9984;DHT22;16737;50.932;6.780;2023-03-05T01:41:24;8.00;90.80
9984;DHT22;16737;50.932;6.780;2023-03-05T01:43:52;8.00;90.80
9984;DHT22;16737;50.932;6.780;2023-03-05T01:46:29;8.00;90.80
9984;DHT22;16737;50.932;6.780;2023-03-05T01:49:09;8.00;90.80
9984;DHT22;16737;50.932;6.780;2023-03-05T01:51:46;8.00;90.80
9984;DHT22;16737;50.932;6.780;2023-03-05T01:54:20;8.00;90.80
9984;DHT22;16737;50.932;6.780;2023-03-05T01:56:51;8.00;90.70
9984;DHT22;16737;50.932;6.780;2023-03-05T01:59:22;8.00;90.70
9984;DHT22;16737;50.932;6.780;2023-03-05T02:04:30;8.00;90.70
9984;DHT22;16737;50.932;6.780;2023-03-05T02:07:01;8.00;90.70
9984;DHT22;16737;50.932;6.780;2023-03-05T02:09:29;8.00;90.70
9984;DHT22;16737;50.932;6.780;2023-03-05T02:11:56;8.00;90.60
9984;DHT22;16737;50.932;6.780;2023-03-05T02:14:23;8.00;90.60
9984;DHT22;16737;50.932;6.780;2023-03-05T02:16:51;8.00;90.60
9984;DHT22;16737;50.932;6.780;2023-03-05T02:19:18;8.00;90.60
9984;DHT22;16737;50.932;6.780;2023-03-05T02:21:47;8.00;90.60
9984;DHT22;16737;50.932;6.780;2023-03-05T02:24:16;8.00;90.60
9984;DHT22;16737;50.932;6.780;2023-03-05T02:26:46;8.00;90.60
9984;DHT22;16737;50.932;6.780;2023-03-05T02:29:16;8.00;90.60
9984;DHT22;16737;50.932;6.780;2023-03-05T02:31:45;8.00;90.60
9984;DHT22;16737;50.932;6.780;2023-03-05T02:34:12;8.00;90.60
9984;DHT22;16737;50.932;6.780;2023-03-05T02:36:39;7.90;90.60
9984;DHT22;16737;50.932;6.780;2023-03-05T02:39:08;7.90;90.60
9984;DHT22;16737;50.932;6.780;2023-03-05T02:41:35;7.90;90.60
9984;DHT22;16737;50.932;6.780;2023-03-05T02:44:02;7.90;90.60
9984;DHT22;16737;50.932;6.780;2023-03-05T02:46:29;7.90;90.60
9984;DHT22;16737;50.932;6.780;2023-03-05T02:48:55;7.90;90.60
9984;DHT22;16737;50.932;6.780;2023-03-05T02:51:22;7.90;90.60
9984;DHT22;16737;50.932;6.780;2023-03-05T02:53:49;7.90;90.60
9984;DHT22;16737;50.932;6.780;2023-03-05T02:56:18;7.90;90.60
9984;DHT22;16737;50.932;6.780;2023-03-05T02:58:45;7.90;90.70
9984;DHT22;16737;50.932;6.780;2023-03-05T03:01:12;7.90;91.00
9984;DHT22;16737;50.932;6.780;2023-03-05T03:03:39;7.90;90.70
9984;DHT22;16737;50.932;6.780;2023-03-05T03:06:06;7.80;90.70
9984;DHT22;16737;50.932;6.780;2023-03-05T03:08:33;7.90;90.70
9984;DHT22;16737;50.932;6.780;2023-03-05T03:11:05;7.90;90.70
9984;DHT22;16737;50.932;6.780;2023-03-05T03:13:35;7.80;90.70
9984;DHT22;16737;50.932;6.780;2023-03-05T03:16:03;7.80;90.70
9984;DHT22;16737;50.932;6.780;2023-03-05T03:18:31;7.80;90.70
9984;DHT22;16737;50.932;6.780;2023-03-05T03:20:59;7.80;90.80
9984;DHT22;16737;50.932;6.780;2023-03-05T03:23:26;7.80;90.80
9984;DHT22;16737;50.932;6.780;2023-03-05T03:25:53;7.80;90.80
9984;DHT22;16737;50.932;6.780;2023-03-05T03:28:20;7.80;90.80
9984;DHT22;16737;50.932;6.780;2023-03-05T03:30:49;7.80;90.80
9984;DHT22;16737;50.932;6.780;2023-03-05T03:33:16;7.80;90.80
9984;DHT22;16737;50.932;6.780;2023-03-05T03:35:43;7.80;90.80
9984;DHT22;16737;50.932;6.780;2023-03-05T03:38:11;7.80;90.80
9984;DHT22;16737;50.932;6.780;2023-03-05T03:40:38;7.80;90.80
9984;DHT22;16737;50.932;6.780;2023-03-05T03:43:06;7.80;90.80
9984;DHT22;16737;50.932;6.780;2023-03-05T03:45:33;7.80;90.70
9984;DHT22;16737;50.932;6.780;2023-03-05T03:48:02;7.70;90.60
9984;DHT22;16737;50.932;6.780;2023-03-05T03:50:29;7.70;90.60
9984;DHT22;16737;50.932;6.780;2023-03-05T03:52:56;7.70;90.60
9984;DHT22;16737;50.932;6.780;2023-03-05T03:55:23;7.70;90.60
9984;DHT22;16737;50.932;6.780;2023-03-05T03:57:50;7.70;90.60
9984;DHT22;16737;50.932;6.780;2023-03-05T04:00:17;7.70;90.50
9984;DHT22;16737;50.932;6.780;2023-03-05T04:02:45;7.70;90.50
9984;DHT22;16737;50.932;6.780;2023-03-05T04:05:13;7.70;90.40
9984;DHT22;16737;50.932;6.780;2023-03-05T04:07:40;7.70;90.40
9984;DHT22;16737;50.932;6.780;2023-03-05T04:10:08;7.70;90.40
9984;DHT22;16737;50.932;6.780;2023-03-05T04:12:36;7.70;90.40
9984;DHT22;16737;50.932;6.780;2023-03-05T04:15:04;7.70;90.40
9984;DHT22;16737;50.932;6.780;2023-03-05T04:17:32;7.70;90.40
9984;DHT22;16737;50.932;6.780;2023-03-05T04:19:59;7.70;90.40
9984;DHT22;16737;50.932;6.780;2023-03-05T04:22:27;7.70;90.30
9984;DHT22;16737;50.932;6.780;2023-03-05T04:24:54;7.70;90.30
9984;DHT22;16737;50.932;6.780;2023-03-05T04:27:21;7.70;90.30
9984;DHT22;16737;50.932;6.780;2023-03-05T04:29:48;7.70;90.30
9984;DHT22;16737;50.932;6.780;2023-03-05T04:32:15;7.70;90.30
9984;DHT22;16737;50.932;6.780;2023-03-05T04:34:47;7.70;90.30
9984;DHT22;16737;50.932;6.780;2023-03-05T04:37:14;7.70;90.40
9984;DHT22;16737;50.932;6.780;2023-03-05T04:39:43;7.60;90.30
9984;DHT22;16737;50.932;6.780;2023-03-05T04:42:10;7.60;90.40
9984;DHT22;16737;50.932;6.780;2023-03-05T04:44:36;7.60;90.40
9984;DHT22;16737;50.932;6.780;2023-03-05T04:47:04;7.60;90.40
9984;DHT22;16737;50.932;6.780;2023-03-05T04:49:31;7.60;90.50
9984;DHT22;16737;50.932;6.780;2023-03-05T04:51:58;7.50;90.40
9984;DHT22;16737;50.932;6.780;2023-03-05T04:54:25;7.50;90.50
9984;DHT22;16737;50.932;6.780;2023-03-05T04:56:53;7.50;90.50
9984;DHT22;16737;50.932;6.780;2023-03-05T04:59:20;7.50;90.50
9984;DHT22;16737;50.932;6.780;2023-03-05T05:01:47;7.50;90.60
9984;DHT22;16737;50.932;6.780;2023-03-05T05:04:14;7.50;90.60
9984;DHT22;16737;50.932;6.780;2023-03-05T05:06:42;7.50;90.70
9984;DHT22;16737;50.932;6.780;2023-03-05T05:09:09;7.50;90.70
9984;DHT22;16737;50.932;6.780;2023-03-05T05:11:36;7.40;90.70
9984;DHT22;16737;50.932;6.780;2023-03-05T05:14:04;7.40;90.80
9984;DHT22;16737;50.932;6.780;2023-03-05T05:16:31;7.40;90.80
9984;DHT22;16737;50.932;6.780;2023-03-05T05:18:59;7.40;90.80
9984;DHT22;16737;50.932;6.780;2023-03-05T05:21:25;7.40;90.80
9984;DHT22;16737;50.932;6.780;2023-03-05T05:23:53;7.40;90.90
9984;DHT22;16737;50.932;6.780;2023-03-05T05:26:19;7.40;90.90
9984;DHT22;16737;50.932;6.780;2023-03-05T05:28:46;7.40;90.90
9984;DHT22;16737;50.932;6.780;2023-03-05T05:31:15;7.40;91.00
9984;DHT22;16737;50.932;6.780;2023-03-05T05:33:43;7.40;91.00
9984;DHT22;16737;50.932;6.780;2023-03-05T05:36:12;7.40;91.00
9984;DHT22;16737;50.932;6.780;2023-03-05T05:38:41;7.40;91.00
9984;DHT22;16737;50.932;6.780;2023-03-05T05:41:09;7.40;91.00
9984;DHT22;16737;50.932;6.780;2023-03-05T05:43:38;7.40;91.00
9984;DHT22;16737;50.932;6.780;2023-03-05T05:46:07;7.40;91.00
9984;DHT22;16737;50.932;6.780;2023-03-05T05:48:38;7.40;91.00
9984;DHT22;16737;50.932;6.780;2023-03-05T05:51:06;7.40;91.00
9984;DHT22;16737;50.932;6.780;2023-03-05T05:53:33;7.40;91.00
9984;DHT22;16737;50.932;6.780;2023-03-05T05:56:03;7.40;91.00
9984;DHT22;16737;50.932;6.780;2023-03-05T05:58:31;7.40;91.10
9984;DHT22;16737;50.932;6.780;2023-03-05T06:00:58;7.40;91.10
9984;DHT22;16737;50.932;6.780;2023-03-05T06:03:25;7.40;91.10
9984;DHT22;16737;50.932;6.780;2023-03-05T06:05:53;7.40;91.10
9984;DHT22;16737;50.932;6.780;2023-03-05T06:08:21;7.40;91.10
9984;DHT22;16737;50.932;6.780;2023-03-05T06:10:53;7.40;91.10
9984;DHT22;16737;50.932;6.780;2023-03-05T06:13:20;7.40;91.20
9984;DHT22;16737;50.932;6.780;2023-03-05T06:15:55;7.40;91.10
9984;DHT22;16737;50.932;6.780;2023-03-05T06:18:23;7.40;91.50
9984;DHT22;16737;50.932;6.780;2023-03-05T06:20:56;7.40;91.10
9984;DHT22;16737;50.932;6.780;2023-03-05T06:23:24;7.40;91.20
9984;DHT22;16737;50.932;6.780;2023-03-05T06:25:52;7.40;91.20
9984;DHT22;16737;50.932;6.780;2023-03-05T06:28:20;7.30;91.10
9984;DHT22;16737;50.932;6.780;2023-03-05T06:30:47;7.30;91.20
9984;DHT22;16737;50.932;6.780;2023-03-05T06:33:14;7.30;91.10
9984;DHT22;16737;50.932;6.780;2023-03-05T06:35:42;7.40;91.20
9984;DHT22;16737;50.932;6.780;2023-03-05T06:38:10;7.30;91.20
9984;DHT22;16737;50.932;6.780;2023-03-05T06:40:38;7.30;91.50
9984;DHT22;16737;50.932;6.780;2023-03-05T06:43:05;7.30;91.20
9984;DHT22;16737;50.932;6.780;2023-03-05T06:45:31;7.30;91.20
9984;DHT22;16737;50.932;6.780;2023-03-05T06:47:58;7.30;91.20
9984;DHT22;16737;50.932;6.780;2023-03-05T06:50:26;7.30;91.30
9984;DHT22;16737;50.932;6.780;2023-03-05T06:52:53;7.30;91.40
9984;DHT22;16737;50.932;6.780;2023-03-05T06:55:21;7.30;91.30
9984;DHT22;16737;50.932;6.780;2023-03-05T06:57:49;7.30;91.30
9984;DHT22;16737;50.932;6.780;2023-03-05T07:00:16;7.20;91.30
9984;DHT22;16737;50.932;6.780;2023-03-05T07:02:43;7.20;91.30
9984;DHT22;16737;50.932;6.780;2023-03-05T07:05:13;7.20;91.30
9984;DHT22;16737;50.932;6.780;2023-03-05T07:07:40;7.20;91.40
9984;DHT22;16737;50.932;6.780;2023-03-05T07:10:08;7.20;91.40
9984;DHT22;16737;50.932;6.780;2023-03-05T07:12:37;7.20;91.40
9984;DHT22;16737;50.932;6.780;2023-03-05T07:15:05;7.20;91.50
9984;DHT22;16737;50.932;6.780;2023-03-05T07:17:33;7.20;91.50
9984;DHT22;16737;50.932;6.780;2023-03-05T07:20:00;7.20;91.60
9984;DHT22;16737;50.932;6.780;2023-03-05T07:22:28;7.20;91.70
9984;DHT22;16737;50.932;6.780;2023-03-05T07:24:56;7.20;91.70
9984;DHT22;16737;50.932;6.780;2023-03-05T07:27:23;7.20;91.70
9984;DHT22;16737;50.932;6.780;2023-03-05T07:29:51;7.20;91.70
9984;DHT22;16737;50.932;6.780;2023-03-05T07:32:18;7.20;91.70
9984;DHT22;16737;50.932;6.780;2023-03-05T07:34:45;7.30;91.70
9984;DHT22;16737;50.932;6.780;2023-03-05T07:37:12;7.20;91.70
9984;DHT22;16737;50.932;6.780;2023-03-05T07:39:39;7.30;91.80
9984;DHT22;16737;50.932;6.780;2023-03-05T07:42:06;7.30;91.80
9984;DHT22;16737;50.932;6.780;2023-03-05T07:44:33;7.30;91.80
9984;DHT22;16737;50.932;6.780;2023-03-05T07:47:01;7.30;91.80
9984;DHT22;16737;50.932;6.780;2023-03-05T07:49:28;7.30;91.80
9984;DHT22;16737;50.932;6.780;2023-03-05T07:51:55;7.30;91.80
9984;DHT22;16737;50.932;6.780;2023-03-05T07:54:22;7.30;92.10
9984;DHT22;16737;50.932;6.780;2023-03-05T07:56:49;7.30;91.70
9984;DHT22;16737;50.932;6.780;2023-03-05T07:59:17;7.30;91.70
9984;DHT22;16737;50.932;6.780;2023-03-05T08:01:44;7.30;91.70
9984;DHT22;16737;50.932;6.780;2023-03-05T08:04:13;7.30;91.70
9984;DHT22;16737;50.932;6.780;2023-03-05T08:06:40;7.30;91.70
9984;DHT22;16737;50.932;6.780;2023-03-05T08:09:08;7.30;91.60
9984;DHT22;16737;50.932;6.780;2023-03-05T08:11:34;7.30;91.60
9984;DHT22;16737;50.932;6.780;2023-03-05T08:14:01;7.30;91.60
9984;DHT22;16737;50.932;6.780;2023-03-05T08:16:29;7.30;91.60
9984;DHT22;16737;50.932;6.780;2023-03-05T08:18:57;7.30;91.60
9984;DHT22;16737;50.932;6.780;2023-03-05T08:21:27;7.30;91.70
9984;DHT22;16737;50.932;6.780;2023-03-05T08:23:56;7.30;91.70
9984;DHT22;16737;50.932;6.780;2023-03-05T08:26:24;7.30;91.70
9984;DHT22;16737;50.932;6.780;2023-03-05T08:28:53;7.30;91.70
9984;DHT22;16737;50.932;6.780;2023-03-05T08:31:22;7.30;91.70
9984;DHT22;16737;50.932;6.780;2023-03-05T08:33:52;7.30;91.80
9984;DHT22;16737;50.932;6.780;2023-03-05T08:36:20;7.40;91.80
9984;DHT22;16737;50.932;6.780;2023-03-05T08:38:49;7.30;91.70
9984;DHT22;16737;50.932;6.780;2023-03-05T08:41:17;7.40;91.80
9984;DHT22;16737;50.932;6.780;2023-03-05T08:43:45;7.40;91.80
9984;DHT22;16737;50.932;6.780;2023-03-05T08:46:13;7.40;91.90
9984;DHT22;16737;50.932;6.780;2023-03-05T08:48:41;7.40;91.80
9984;DHT22;16737;50.932;6.780;2023-03-05T08:51:11;7.40;91.80
9984;DHT22;16737;50.932;6.780;2023-03-05T08:53:40;7.50;92.00
9984;DHT22;16737;50.932;6.780;2023-03-05T08:56:09;7.50;91.90
9984;DHT22;16737;50.932;6.780;2023-03-05T08:58:37;7.50;92.00
9984;DHT22;16737;50.932;6.780;2023-03-05T09:01:05;7.50;92.00
9984;DHT22;16737;50.932;6.780;2023-03-05T09:03:32;7.50;92.00
9984;DHT22;16737;50.932;6.780;2023-03-05T09:06:00;7.60;92.00
9984;DHT22;16737;50.932;6.780;2023-03-05T09:08:28;7.60;92.00
9984;DHT22;16737;50.932;6.780;2023-03-05T09:10:56;7.60;92.00
9984;DHT22;16737;50.932;6.780;2023-03-05T09:13:24;7.60;92.00
9984;DHT22;16737;50.932;6.780;2023-03-05T09:15:56;7.70;92.00
9984;DHT22;16737;50.932;6.780;2023-03-05T09:18:24;7.70;92.10
9984;DHT22;16737;50.932;6.780;2023-03-05T09:20:51;7.70;92.10
9984;DHT22;16737;50.932;6.780;2023-03-05T09:23:19;7.70;92.10
9984;DHT22;16737;50.932;6.780;2023-03-05T09:25:46;7.80;92.30
9984;DHT22;16737;50.932;6.780;2023-03-05T09:28:14;7.90;92.30
9984;DHT22;16737;50.932;6.780;2023-03-05T09:30:42;7.90;92.30
9984;DHT22;16737;50.932;6.780;2023-03-05T09:33:13;8.00;92.40
9984;DHT22;16737;50.932;6.780;2023-03-05T09:35:40;8.10;92.40
9984;DHT22;16737;50.932;6.780;2023-03-05T09:38:07;8.10;92.30
9984;DHT22;16737;50.932;6.780;2023-03-05T09:40:41;8.20;92.30
9984;DHT22;16737;50.932;6.780;2023-03-05T09:43:19;8.30;92.20
9984;DHT22;16737;50.932;6.780;2023-03-05T09:46:11;8.30;92.10
9984;DHT22;16737;50.932;6.780;2023-03-05T09:48:57;8.40;92.10
9984;DHT22;16737;50.932;6.780;2023-03-05T09:51:38;8.40;92.00
9984;DHT22;16737;50.932;6.780;2023-03-05T09:54:12;8.40;91.90
9984;DHT22;16737;50.932;6.780;2023-03-05T09:56:45;8.40;91.80
9984;DHT22;16737;50.932;6.780;2023-03-05T09:59:20;8.40;91.80
9984;DHT22;16737;50.932;6.780;2023-03-05T10:01:59;8.40;91.80
9984;DHT22;16737;50.932;6.780;2023-03-05T10:04:40;8.50;91.80
9984;DHT22;16737;50.932;6.780;2023-03-05T10:07:14;8.50;91.80
9984;DHT22;16737;50.932;6.780;2023-03-05T10:09:48;8.50;91.80
9984;DHT22;16737;50.932;6.780;2023-03-05T10:12:25;8.50;91.80
9984;DHT22;16737;50.932;6.780;2023-03-05T10:14:59;8.50;91.80
9984;DHT22;16737;50.932;6.780;2023-03-05T10:18:01;8.50;91.80
9984;DHT22;16737;50.932;6.780;2023-03-05T10:20:44;8.60;92.00
9984;DHT22;16737;50.932;6.780;2023-03-05T10:23:29;8.60;91.80
9984;DHT22;16737;50.932;6.780;2023-03-05T10:26:24;8.60;91.70
9984;DHT22;16737;50.932;6.780;2023-03-05T10:29:12;8.60;91.60
9984;DHT22;16737;50.932;6.780;2023-03-05T10:31:55;8.60;91.60
9984;DHT22;16737;50.932;6.780;2023-03-05T10:38:11;8.60;91.70
9984;DHT22;16737;50.932;6.780;2023-03-05T10:40:52;8.60;91.70
9984;DHT22;16737;50.932;6.780;2023-03-05T10:43:26;8.60;91.60
9984;DHT22;16737;50.932;6.780;2023-03-05T10:46:02;8.60;91.60
9984;DHT22;16737;50.932;6.780;2023-03-05T10:48:35;8.60;91.60
9984;DHT22;16737;50.932;6.780;2023-03-05T10:51:14;8.50;91.60
9984;DHT22;16737;50.932;6.780;2023-03-05T10:53:50;8.50;91.70
9984;DHT22;16737;50.932;6.780;2023-03-05T10:56:23;8.50;91.70
9984;DHT22;16737;50.932;6.780;2023-03-05T10:58:52;8.50;91.60
9984;DHT22;16737;50.932;6.780;2023-03-05T11:01:23;8.50;91.50
9984;DHT22;16737;50.932;6.780;2023-03-05T11:03:55;8.50;91.60
9984;DHT22;16737;50.932;6.780;2023-03-05T11:06:34;8.50;91.60
9984;DHT22;16737;50.932;6.780;2023-03-05T11:09:15;8.40;91.70
9984;DHT22;16737;50.932;6.780;2023-03-05T11:12:09;8.40;91.80
9984;DHT22;16737;50.932;6.780;2023-03-05T11:14:39;8.40;91.80
9984;DHT22;16737;50.932;6.780;2023-03-05T11:17:29;8.40;91.80
9984;DHT22;16737;50.932;6.780;2023-03-05T11:20:31;8.50;92.00
9984;DHT22;16737;50.932;6.780;2023-03-05T11:23:09;8.50;92.00
9984;DHT22;16737;50.932;6.780;2023-03-05T11:25:53;8.50;91.90
9984;DHT22;16737;50.932;6.780;2023-03-05T11:28:25;8.50;92.00
9984;DHT22;16737;50.932;6.780;2023-03-05T11:30:57;8.50;91.90
9984;DHT22;16737;50.932;6.780;2023-03-05T11:33:26;8.50;91.80
9984;DHT22;16737;50.932;6.780;2023-03-05T11:36:19;8.50;91.80
9984;DHT22;16737;50.932;6.780;2023-03-05T11:38:53;8.50;91.80
9984;DHT22;16737;50.932;6.780;2023-03-05T11:41:27;8.50;91.70
9984;DHT22;16737;50.932;6.780;2023-03-05T11:44:00;8.50;91.70
9984;DHT22;16737;50.932;6.780;2023-03-05T11:46:37;8.50;91.80
9984;DHT22;16737;50.932;6.780;2023-03-05T11:49:11;8.40;91.80
9984;DHT22;16737;50.932;6.780;2023-03-05T11:51:50;8.40;91.80
9984;DHT22;16737;50.932;6.780;2023-03-05T11:54:32;8.40;91.80
9984;DHT22;16737;50.932;6.780;2023-03-05T11:57:05;8.40;91.90
9984;DHT22;16737;50.932;6.780;2023-03-05T11:59:36;8.40;91.90
9984;DHT22;16737;50.932;6.780;2023-03-05T12:02:15;8.50;92.00
9984;DHT22;16737;50.932;6.780;2023-03-05T12:04:44;8.50;92.10
9984;DHT22;16737;50.932;6.780;2023-03-05T12:07:15;8.60;92.10
9984;DHT22;16737;50.932;6.780;2023-03-05T12:09:50;8.60;92.00
9984;DHT22;16737;50.932;6.780;2023-03-05T12:12:30;8.60;92.00
9984;DHT22;16737;50.932;6.780;2023-03-05T12:15:17;8.70;92.00
9984;DHT22;16737;50.932;6.780;2023-03-05T12:18:03;8.70;91.90
9984;DHT22;16737;50.932;6.780;2023-03-05T12:20:41;8.70;91.90
9984;DHT22;16737;50.932;6.780;2023-03-05T12:23:15;8.80;91.90
9984;DHT22;16737;50.932;6.780;2023-03-05T12:25:48;8.80;91.90
9984;DHT22;16737;50.932;6.780;2023-03-05T12:28:55;8.80;91.90
9984;DHT22;16737;50.932;6.780;2023-03-05T12:31:37;8.80;91.90
9984;DHT22;16737;50.932;6.780;2023-03-05T12:34:45;8.80;91.90
9984;DHT22;16737;50.932;6.780;2023-03-05T12:40:27;8.90;91.90
9984;DHT22;16737;50.932;6.780;2023-03-05T12:42:57;8.90;91.80
9984;DHT22;16737;50.932;6.780;2023-03-05T12:45:33;8.90;91.70
9984;DHT22;16737;50.932;6.780;2023-03-05T12:48:39;8.90;91.80
9984;DHT22;16737;50.932;6.780;2023-03-05T12:51:30;8.90;91.70
9984;DHT22;16737;50.932;6.780;2023-03-05T12:54:26;8.90;91.60
9984;DHT22;16737;50.932;6.780;2023-03-05T12:56:57;8.90;91.50
9984;DHT22;16737;50.932;6.780;2023-03-05T12:59:32;8.80;91.50
9984;DHT22;16737;50.932;6.780;2023-03-05T13:02:22;8.80;91.50
9984;DHT22;16737;50.932;6.780;2023-03-05T13:04:57;8.80;91.60
9984;DHT22;16737;50.932;6.780;2023-03-05T13:07:27;8.80;91.70
9984;DHT22;16737;50.932;6.780;2023-03-05T13:09:55;8.80;91.70
9984;DHT22;16737;50.932;6.780;2023-03-05T13:12:26;8.80;91.80
9984;DHT22;16737;50.932;6.780;2023-03-05T13:14:59;8.80;91.80
9984;DHT22;16737;50.932;6.780;2023-03-05T13:17:35;8.80;91.90
9984;DHT22;16737;50.932;6.780;2023-03-05T13:20:29;8.80;91.90
9984;DHT22;16737;50.932;6.780;2023-03-05T13:23:19;8.80;91.90
9984;DHT22;16737;50.932;6.780;2023-03-05T13:25:59;8.80;91.80
9984;DHT22;16737;50.932;6.780;2023-03-05T13:28:29;8.80;91.90
9984;DHT22;16737;50.932;6.780;2023-03-05T13:30:59;8.80;91.80
9984;DHT22;16737;50.932;6.780;2023-03-05T13:33:32;8.90;91.90
9984;DHT22;16737;50.932;6.780;2023-03-05T13:36:00;8.90;91.90
9984;DHT22;16737;50.932;6.780;2023-03-05T13:38:32;8.90;91.80
9984;DHT22;16737;50.932;6.780;2023-03-05T13:41:15;8.90;91.80
9984;DHT22;16737;50.932;6.780;2023-03-05T13:43:47;8.90;91.90
9984;DHT22;16737;50.932;6.780;2023-03-05T13:46:25;8.90;91.80
9984;DHT22;16737;50.932;6.780;2023-03-05T13:48:56;8.90;91.80
9984;DHT22;16737;50.932;6.780;2023-03-05T13:51:41;8.90;91.70
9984;DHT22;16737;50.932;6.780;2023-03-05T13:54:12;8.90;91.80
9984;DHT22;16737;50.932;6.780;2023-03-05T13:56:51;8.90;91.70
9984;DHT22;16737;50.932;6.780;2023-03-05T13:59:22;8.90;91.80
9984;DHT22;16737;50.932;6.780;2023-03-05T14:01:51;8.90;91.80
9984;DHT22;16737;50.932;6.780;2023-03-05T14:04:22;8.90;91.80
9984;DHT22;16737;50.932;6.780;2023-03-05T14:06:55;8.90;91.90
9984;DHT22;16737;50.932;6.780;2023-03-05T14:09:27;8.90;91.90
9984;DHT22;16737;50.932;6.780;2023-03-05T14:12:01;8.90;91.90
9984;DHT22;16737;50.932;6.780;2023-03-05T14:14:33;8.90;91.90
9984;DHT22;16737;50.932;6.780;2023-03-05T14:17:21;8.90;91.90
9984;DHT22;16737;50.932;6.780;2023-03-05T14:22:53;9.00;92.00
9984;DHT22;16737;50.932;6.780;2023-03-05T14:25:27;9.00;92.00
9984;DHT22;16737;50.932;6.780;2023-03-05T14:28:00;9.00;92.10
9984;DHT22;16737;50.932;6.780;2023-03-05T14:30:28;9.10;92.10
9984;DHT22;16737;50.932;6.780;2023-03-05T14:32:58;9.10;92.10
9984;DHT22;16737;50.932;6.780;2023-03-05T14:35:28;9.10;92.10
9984;DHT22;16737;50.932;6.780;2023-03-05T14:37:57;9.20;92.00
9984;DHT22;16737;50.932;6.780;2023-03-05T14:40:29;9.20;92.00
9984;DHT22;16737;50.932;6.780;2023-03-05T14:43:00;9.20;92.00
9984;DHT22;16737;50.932;6.780;2023-03-05T14:45:30;9.30;92.00
9984;DHT22;16737;50.932;6.780;2023-03-05T14:47:59;9.30;92.10
9984;DHT22;16737;50.932;6.780;2023-03-05T14:50:32;9.30;92.00
9984;DHT22;16737;50.932;6.780;2023-03-05T14:53:03;9.30;92.00
9984;DHT22;16737;50.932;6.780;2023-03-05T14:55:34;9.30;91.90
9984;DHT22;16737;50.932;6.780;2023-03-05T14:58:06;9.40;91.90
9984;DHT22;16737;50.932;6.780;2023-03-05T15:00:37;9.40;91.90
9984;DHT22;16737;50.932;6.780;2023-03-05T15:03:04;9.40;91.80
9984;DHT22;16737;50.932;6.780;2023-03-05T15:05:37;9.40;91.80
9984;DHT22;16737;50.932;6.780;2023-03-05T15:08:05;9.40;91.80
9984;DHT22;16737;50.932;6.780;2023-03-05T15:10:38;9.40;91.70
9984;DHT22;16737;50.932;6.780;2023-03-05T15:13:05;9.40;91.70
9984;DHT22;16737;50.932;6.780;2023-03-05T15:15:32;9.40;91.70
9984;DHT22;16737;50.932;6.780;2023-03-05T15:17:59;9.40;91.70
9984;DHT22;16737;50.932;6.780;2023-03-05T15:20:28;9.40;91.80
9984;DHT22;16737;50.932;6.780;2023-03-05T15:22:58;9.40;91.80
9984;DHT22;16737;50.932;6.780;2023-03-05T15:25:25;9.40;91.60
9984;DHT22;16737;50.932;6.780;2023-03-05T15:27:54;9.40;91.50
9984;DHT22;16737;50.932;6.780;2023-03-05T15:30:23;9.40;91.50
9984;DHT22;16737;50.932;6.780;2023-03-05T15:32:57;9.40;91.40
9984;DHT22;16737;50.932;6.780;2023-03-05T15:35:27;9.30;91.40
9984;DHT22;16737;50.932;6.780;2023-03-05T15:37:55;9.30;91.40
9984;DHT22;16737;50.932;6.780;2023-03-05T15:40:24;9.30;91.40
9984;DHT22;16737;50.932;6.780;2023-03-05T15:42:53;9.30;91.30
9984;DHT22;16737;50.932;6.780;2023-03-05T15:45:20;9.20;91.30
9984;DHT22;16737;50.932;6.780;2023-03-05T15:47:47;9.20;91.30
9984;DHT22;16737;50.932;6.780;2023-03-05T15:50:15;9.20;91.30
9984;DHT22;16737;50.932;6.780;2023-03-05T15:52:43;9.20;91.30
9984;DHT22;16737;50.932;6.780;2023-03-05T15:55:10;9.10;91.60
9984;DHT22;16737;50.932;6.780;2023-03-05T15:57:42;9.10;91.30
9984;DHT22;16737;50.932;6.780;2023-03-05T16:00:12;9.10;91.30
9984;DHT22;16737;50.932;6.780;2023-03-05T16:02:40;9.00;91.30
9984;DHT22;16737;50.932;6.780;2023-03-05T16:05:08;9.00;91.30
9984;DHT22;16737;50.932;6.780;2023-03-05T16:07:38;9.00;91.30
9984;DHT22;16737;50.932;6.780;2023-03-05T16:10:10;9.00;91.40
9984;DHT22;16737;50.932;6.780;2023-03-05T16:12:44;8.90;91.30
9984;DHT22;16737;50.932;6.780;2023-03-05T16:15:15;8.90;91.30
9984;DHT22;16737;50.932;6.780;2023-03-05T16:17:47;8.90;91.70
9984;DHT22;16737;50.932;6.780;2023-03-05T16:20:18;8.90;91.40
9984;DHT22;16737;50.932;6.780;2023-03-05T16:22:46;8.90;91.40
9984;DHT22;16737;50.932;6.780;2023-03-05T16:25:14;8.80;91.40
9984;DHT22;16737;50.932;6.780;2023-03-05T16:27:42;8.80;91.40
9984;DHT22;16737;50.932;6.780;2023-03-05T16:30:10;8.80;91.50
9984;DHT22;16737;50.932;6.780;2023-03-05T16:32:41;8.80;91.50
9984;DHT22;16737;50.932;6.780;2023-03-05T16:35:08;8.70;91.50
9984;DHT22;16737;50.932;6.780;2023-03-05T16:37:37;8.70;91.50